sensor_id;sensor_type;location;lat;lon;timestamp;P1;durP1;ratioP1;P2;durP2;ratioP2
46216;SDS011;47258;59.424;13.482;2023-01-05T00:00:52;1.40;;;0.60;;
46216;SDS011;47258;59.424;13.482;2023-01-05T00:03:20;0.60;;;0.35;;
46216;SDS011;47258;59.424;13.482;2023-01-05T00:05:48;0.30;;;0.30;;
46216;SDS011;47258;59.424;13.482;2023-01-05T00:08:16;0.52;;;0.52;;
46216;SDS011;47258;59.424;13.482;2023-01-05T00:10:43;0.22;;;0.22;;
46216;SDS011;47258;59.424;13.482;2023-01-05T00:13:27;0.20;;;0.20;;
46216;SDS011;47258;59.424;13.482;2023-01-05T00:16:12;0.28;;;0.28;;
46216;SDS011;47258;59.424;13.482;2023-01-05T00:18:56;0.50;;;0.50;;
46216;SDS011;47258;59.424;13.482;2023-01-05T00:21:43;0.40;;;0.40;;
46216;SDS011;47258;59.424;13.482;2023-01-05T00:24:27;0.52;;;0.52;;
46216;SDS011;47258;59.424;13.482;2023-01-05T00:26:55;0.55;;;0.55;;
46216;SDS011;47258;59.424;13.482;2023-01-05T00:29:22;0.40;;;0.40;;
46216;SDS011;47258;59.424;13.482;2023-01-05T00:31:50;0.55;;;0.55;;
46216;SDS011;47258;59.424;13.482;2023-01-05T00:34:17;2.60;;;0.90;;
46216;SDS011;47258;59.424;13.482;2023-01-05T00:36:45;0.50;;;0.50;;
46216;SDS011;47258;59.424;13.482;2023-01-05T00:39:12;0.50;;;0.50;;
46216;SDS011;47258;59.424;13.482;2023-01-05T00:41:39;1.23;;;0.57;;
46216;SDS011;47258;59.424;13.482;2023-01-05T00:44:06;0.50;;;0.50;;
46216;SDS011;47258;59.424;13.482;2023-01-05T00:46:33;0.40;;;0.40;;
46216;SDS011;47258;59.424;13.482;2023-01-05T00:49:00;0.60;;;0.60;;
46216;SDS011;47258;59.424;13.482;2023-01-05T00:51:28;0.50;;;0.50;;
46216;SDS011;47258;59.424;13.482;2023-01-05T00:53:56;0.52;;;0.52;;
46216;SDS011;47258;59.424;13.482;2023-01-05T00:56:23;0.50;;;0.50;;
46216;SDS011;47258;59.424;13.482;2023-01-05T00:58:51;0.60;;;0.60;;
46216;SDS011;47258;59.424;13.482;2023-01-05T01:01:19;0.67;;;0.67;;
46216;SDS011;47258;59.424;13.482;2023-01-05T01:03:46;1.02;;;0.90;;
46216;SDS011;47258;59.424;13.482;2023-01-05T01:06:13;0.40;;;0.40;;
46216;SDS011;47258;59.424;13.482;2023-01-05T01:08:41;0.40;;;0.40;;
46216;SDS011;47258;59.424;13.482;2023-01-05T01:11:10;0.30;;;0.30;;
46216;SDS011;47258;59.424;13.482;2023-01-05T01:13:37;0.50;;;0.50;;
46216;SDS011;47258;59.424;13.482;2023-01-05T01:16:04;0.45;;;0.45;;
46216;SDS011;47258;59.424;13.482;2023-01-05T01:18:32;0.30;;;0.30;;
46216;SDS011;47258;59.424;13.482;2023-01-05T01:21:00;0.40;;;0.40;;
46216;SDS011;47258;59.424;13.482;2023-01-05T01:23:27;0.50;;;0.50;;
46216;SDS011;47258;59.424;13.482;2023-01-05T01:25:54;0.40;;;0.40;;
46216;SDS011;47258;59.424;13.482;2023-01-05T01:28:23;0.63;;;0.63;;
46216;SDS011;47258;59.424;13.482;2023-01-05T01:30:50;0.47;;;0.47;;
46216;SDS011;47258;59.424;13.482;2023-01-05T01:33:17;0.50;;;0.50;;
46216;SDS011;47258;59.424;13.482;2023-01-05T01:35:44;0.40;;;0.40;;
46216;SDS011;47258;59.424;13.482;2023-01-05T01:38:11;9.35;;;0.60;;
46216;SDS011;47258;59.424;13.482;2023-01-05T01:40:38;0.85;;;0.77;;
46216;SDS011;47258;59.424;13.482;2023-01-05T01:43:10;0.40;;;0.40;;
46216;SDS011;47258;59.424;13.482;2023-01-05T01:45:40;1.08;;;0.65;;
46216;SDS011;47258;59.424;13.482;2023-01-05T01:48:08;0.60;;;0.40;;
46216;SDS011;47258;59.424;13.482;2023-01-05T01:50:38;0.60;;;0.60;;
46216;SDS011;47258;59.424;13.482;2023-01-05T01:53:11;0.40;;;0.40;;
46216;SDS011;47258;59.424;13.482;2023-01-05T01:55:43;0.45;;;0.40;;
46216;SDS011;47258;59.424;13.482;2023-01-05T01:58:12;0.22;;;0.22;;
46216;SDS011;47258;59.424;13.482;2023-01-05T02:00:46;0.40;;;0.40;;
46216;SDS011;47258;59.424;13.482;2023-01-05T02:03:14;1.30;;;0.57;;
46216;SDS011;47258;59.424;13.482;2023-01-05T02:05:41;1.15;;;0.70;;
46216;SDS011;47258;59.424;13.482;2023-01-05T02:08:09;4.82;;;0.68;;
46216;SDS011;47258;59.424;13.482;2023-01-05T02:10:41;0.90;;;0.73;;
46216;SDS011;47258;59.424;13.482;2023-01-05T02:13:21;0.70;;;0.70;;
46216;SDS011;47258;59.424;13.482;2023-01-05T02:16:01;0.60;;;0.60;;
46216;SDS011;47258;59.424;13.482;2023-01-05T02:18:42;1.58;;;0.70;;
46216;SDS011;47258;59.424;13.482;2023-01-05T02:21:24;0.57;;;0.57;;
46216;SDS011;47258;59.424;13.482;2023-01-05T02:30:27;0.68;;;0.68;;
46216;SDS011;47258;59.424;13.482;2023-01-05T02:33:25;0.55;;;0.55;;
46216;SDS011;47258;59.424;13.482;2023-01-05T02:36:00;0.43;;;0.43;;
46216;SDS011;47258;59.424;13.482;2023-01-05T02:38:32;0.52;;;0.52;;
46216;SDS011;47258;59.424;13.482;2023-01-05T02:41:06;0.43;;;0.43;;
46216;SDS011;47258;59.424;13.482;2023-01-05T02:43:37;0.60;;;0.60;;
46216;SDS011;47258;59.424;13.482;2023-01-05T02:46:06;1.65;;;0.70;;
46216;SDS011;47258;59.424;13.482;2023-01-05T02:48:33;1.02;;;0.55;;
46216;SDS011;47258;59.424;13.482;2023-01-05T02:51:00;1.00;;;0.75;;
46216;SDS011;47258;59.424;13.482;2023-01-05T02:53:31;0.50;;;0.50;;
46216;SDS011;47258;59.424;13.482;2023-01-05T02:56:03;0.65;;;0.65;;
46216;SDS011;47258;59.424;13.482;2023-01-05T02:58:36;1.02;;;0.77;;
46216;SDS011;47258;59.424;13.482;2023-01-05T03:01:10;0.93;;;0.65;;
46216;SDS011;47258;59.424;13.482;2023-01-05T03:03:42;0.52;;;0.52;;
46216;SDS011;47258;59.424;13.482;2023-01-05T03:06:13;2.60;;;0.70;;
46216;SDS011;47258;59.424;13.482;2023-01-05T03:08:45;0.63;;;0.63;;
46216;SDS011;47258;59.424;13.482;2023-01-05T03:11:15;1.20;;;1.00;;
46216;SDS011;47258;59.424;13.482;2023-01-05T03:14:01;1.02;;;0.77;;
46216;SDS011;47258;59.424;13.482;2023-01-05T03:16:36;0.60;;;0.60;;
46216;SDS011;47258;59.424;13.482;2023-01-05T03:19:06;2.05;;;1.15;;
46216;SDS011;47258;59.424;13.482;2023-01-05T03:21:54;1.73;;;0.90;;
46216;SDS011;47258;59.424;13.482;2023-01-05T03:24:40;0.77;;;0.60;;
46216;SDS011;47258;59.424;13.482;2023-01-05T03:27:27;2.40;;;1.00;;
46216;SDS011;47258;59.424;13.482;2023-01-05T03:30:12;0.98;;;0.98;;
46216;SDS011;47258;59.424;13.482;2023-01-05T03:33:00;3.20;;;1.58;;
46216;SDS011;47258;59.424;13.482;2023-01-05T03:35:51;2.25;;;0.63;;
46216;SDS011;47258;59.424;13.482;2023-01-05T03:38:23;0.80;;;0.80;;
46216;SDS011;47258;59.424;13.482;2023-01-05T03:40:55;1.20;;;1.10;;
46216;SDS011;47258;59.424;13.482;2023-01-05T03:43:24;1.35;;;0.73;;
46216;SDS011;47258;59.424;13.482;2023-01-05T03:45:53;0.70;;;0.70;;
46216;SDS011;47258;59.424;13.482;2023-01-05T03:48:23;0.90;;;0.90;;
46216;SDS011;47258;59.424;13.482;2023-01-05T03:50:52;1.30;;;1.20;;
46216;SDS011;47258;59.424;13.482;2023-01-05T03:53:19;1.70;;;0.90;;
46216;SDS011;47258;59.424;13.482;2023-01-05T03:55:46;0.70;;;0.70;;
46216;SDS011;47258;59.424;13.482;2023-01-05T03:58:13;1.02;;;1.00;;
46216;SDS011;47258;59.424;13.482;2023-01-05T04:00:40;1.30;;;0.98;;
46216;SDS011;47258;59.424;13.482;2023-01-05T04:03:08;1.27;;;1.10;;
46216;SDS011;47258;59.424;13.482;2023-01-05T04:05:36;0.98;;;0.80;;
46216;SDS011;47258;59.424;13.482;2023-01-05T04:08:04;0.88;;;0.60;;
46216;SDS011;47258;59.424;13.482;2023-01-05T04:10:31;1.00;;;0.90;;
46216;SDS011;47258;59.424;13.482;2023-01-05T04:12:58;2.35;;;1.08;;
46216;SDS011;47258;59.424;13.482;2023-01-05T04:15:25;0.77;;;0.77;;
46216;SDS011;47258;59.424;13.482;2023-01-05T04:17:53;0.88;;;0.88;;
46216;SDS011;47258;59.424;13.482;2023-01-05T04:20:20;1.50;;;0.80;;
46216;SDS011;47258;59.424;13.482;2023-01-05T04:22:48;0.65;;;0.52;;
46216;SDS011;47258;59.424;13.482;2023-01-05T04:25:15;0.75;;;0.70;;
46216;SDS011;47258;59.424;13.482;2023-01-05T04:27:42;1.13;;;1.10;;
46216;SDS011;47258;59.424;13.482;2023-01-05T04:30:10;0.63;;;0.60;;
46216;SDS011;47258;59.424;13.482;2023-01-05T04:32:37;0.68;;;0.68;;
46216;SDS011;47258;59.424;13.482;2023-01-05T04:35:05;0.55;;;0.55;;
46216;SDS011;47258;59.424;13.482;2023-01-05T04:37:32;0.98;;;0.98;;
46216;SDS011;47258;59.424;13.482;2023-01-05T04:40:00;1.20;;;0.90;;
46216;SDS011;47258;59.424;13.482;2023-01-05T04:42:27;0.95;;;0.95;;
46216;SDS011;47258;59.424;13.482;2023-01-05T04:44:54;1.02;;;0.98;;
46216;SDS011;47258;59.424;13.482;2023-01-05T04:47:21;3.72;;;1.50;;
46216;SDS011;47258;59.424;13.482;2023-01-05T04:49:48;1.00;;;0.95;;
46216;SDS011;47258;59.424;13.482;2023-01-05T04:52:18;1.75;;;1.27;;
46216;SDS011;47258;59.424;13.482;2023-01-05T04:54:45;1.33;;;1.23;;
46216;SDS011;47258;59.424;13.482;2023-01-05T04:57:13;2.83;;;1.65;;
46216;SDS011;47258;59.424;13.482;2023-01-05T04:59:40;1.38;;;1.27;;
46216;SDS011;47258;59.424;13.482;2023-01-05T05:02:07;1.02;;;1.02;;
46216;SDS011;47258;59.424;13.482;2023-01-05T05:04:35;1.42;;;1.33;;
46216;SDS011;47258;59.424;13.482;2023-01-05T05:07:02;2.45;;;1.15;;
46216;SDS011;47258;59.424;13.482;2023-01-05T05:09:29;1.73;;;1.60;;
46216;SDS011;47258;59.424;13.482;2023-01-05T05:11:57;2.22;;;1.40;;
46216;SDS011;47258;59.424;13.482;2023-01-05T05:14:25;2.25;;;1.55;;
46216;SDS011;47258;59.424;13.482;2023-01-05T05:16:52;2.45;;;1.60;;
46216;SDS011;47258;59.424;13.482;2023-01-05T05:19:19;1.58;;;1.45;;
46216;SDS011;47258;59.424;13.482;2023-01-05T05:21:46;2.83;;;1.55;;
46216;SDS011;47258;59.424;13.482;2023-01-05T05:24:13;2.05;;;1.90;;
46216;SDS011;47258;59.424;13.482;2023-01-05T05:26:40;4.85;;;1.58;;
46216;SDS011;47258;59.424;13.482;2023-01-05T05:29:07;1.50;;;1.40;;
46216;SDS011;47258;59.424;13.482;2023-01-05T05:31:36;1.02;;;0.90;;
46216;SDS011;47258;59.424;13.482;2023-01-05T05:34:03;2.33;;;1.23;;
46216;SDS011;47258;59.424;13.482;2023-01-05T05:36:30;2.85;;;1.75;;
46216;SDS011;47258;59.424;13.482;2023-01-05T05:38:57;1.48;;;0.93;;
46216;SDS011;47258;59.424;13.482;2023-01-05T05:41:24;2.78;;;1.90;;
46216;SDS011;47258;59.424;13.482;2023-01-05T05:43:51;2.25;;;1.20;;
46216;SDS011;47258;59.424;13.482;2023-01-05T05:46:18;1.20;;;0.98;;
46216;SDS011;47258;59.424;13.482;2023-01-05T05:48:47;1.70;;;1.45;;
46216;SDS011;47258;59.424;13.482;2023-01-05T05:51:14;1.65;;;1.52;;
46216;SDS011;47258;59.424;13.482;2023-01-05T05:53:41;1.70;;;1.33;;
46216;SDS011;47258;59.424;13.482;2023-01-05T05:56:08;1.35;;;1.23;;
46216;SDS011;47258;59.424;13.482;2023-01-05T05:58:35;1.05;;;1.05;;
46216;SDS011;47258;59.424;13.482;2023-01-05T06:01:02;1.20;;;1.10;;
46216;SDS011;47258;59.424;13.482;2023-01-05T06:03:29;1.10;;;1.00;;
46216;SDS011;47258;59.424;13.482;2023-01-05T06:05:57;0.95;;;0.93;;
46216;SDS011;47258;59.424;13.482;2023-01-05T06:08:25;2.10;;;1.90;;
46216;SDS011;47258;59.424;13.482;2023-01-05T06:10:53;1.55;;;1.45;;
46216;SDS011;47258;59.424;13.482;2023-01-05T06:13:21;1.70;;;1.60;;
46216;SDS011;47258;59.424;13.482;2023-01-05T06:15:48;1.50;;;1.20;;
46216;SDS011;47258;59.424;13.482;2023-01-05T06:18:16;3.03;;;1.83;;
46216;SDS011;47258;59.424;13.482;2023-01-05T06:20:43;3.53;;;1.42;;
46216;SDS011;47258;59.424;13.482;2023-01-05T06:23:12;2.05;;;1.95;;
46216;SDS011;47258;59.424;13.482;2023-01-05T06:25:39;2.50;;;1.98;;
46216;SDS011;47258;59.424;13.482;2023-01-05T06:28:06;2.00;;;1.40;;
46216;SDS011;47258;59.424;13.482;2023-01-05T06:30:33;1.42;;;1.30;;
46216;SDS011;47258;59.424;13.482;2023-01-05T06:33:00;1.60;;;1.50;;
46216;SDS011;47258;59.424;13.482;2023-01-05T06:35:27;2.58;;;2.00;;
46216;SDS011;47258;59.424;13.482;2023-01-05T06:37:55;1.60;;;1.50;;
46216;SDS011;47258;59.424;13.482;2023-01-05T06:40:23;1.40;;;1.30;;
46216;SDS011;47258;59.424;13.482;2023-01-05T06:42:50;1.70;;;1.60;;
46216;SDS011;47258;59.424;13.482;2023-01-05T06:45:17;1.25;;;1.25;;
46216;SDS011;47258;59.424;13.482;2023-01-05T06:47:45;3.40;;;1.58;;
46216;SDS011;47258;59.424;13.482;2023-01-05T06:50:12;3.28;;;2.00;;
46216;SDS011;47258;59.424;13.482;2023-01-05T06:52:39;2.55;;;1.45;;
46216;SDS011;47258;59.424;13.482;2023-01-05T06:55:07;1.55;;;1.45;;
46216;SDS011;47258;59.424;13.482;2023-01-05T06:57:36;1.58;;;1.33;;
46216;SDS011;47258;59.424;13.482;2023-01-05T07:00:04;3.90;;;1.65;;
46216;SDS011;47258;59.424;13.482;2023-01-05T07:02:33;2.08;;;1.33;;
46216;SDS011;47258;59.424;13.482;2023-01-05T07:05:00;1.27;;;1.27;;
46216;SDS011;47258;59.424;13.482;2023-01-05T07:07:27;1.27;;;1.17;;
46216;SDS011;47258;59.424;13.482;2023-01-05T07:09:54;2.15;;;1.50;;
46216;SDS011;47258;59.424;13.482;2023-01-05T07:12:21;1.60;;;1.23;;
46216;SDS011;47258;59.424;13.482;2023-01-05T07:14:49;3.55;;;1.02;;
46216;SDS011;47258;59.424;13.482;2023-01-05T07:17:17;3.60;;;1.35;;
46216;SDS011;47258;59.424;13.482;2023-01-05T07:19:44;1.25;;;1.15;;
46216;SDS011;47258;59.424;13.482;2023-01-05T07:22:11;1.63;;;1.52;;
46216;SDS011;47258;59.424;13.482;2023-01-05T07:24:38;2.13;;;1.48;;
46216;SDS011;47258;59.424;13.482;2023-01-05T07:27:05;1.75;;;1.00;;
46216;SDS011;47258;59.424;13.482;2023-01-05T07:29:33;3.75;;;1.50;;
46216;SDS011;47258;59.424;13.482;2023-01-05T07:32:01;3.03;;;1.50;;
46216;SDS011;47258;59.424;13.482;2023-01-05T07:34:28;1.50;;;1.20;;
46216;SDS011;47258;59.424;13.482;2023-01-05T07:36:55;4.05;;;1.40;;
46216;SDS011;47258;59.424;13.482;2023-01-05T07:39:22;2.15;;;1.63;;
46216;SDS011;47258;59.424;13.482;2023-01-05T07:41:50;5.13;;;2.15;;
46216;SDS011;47258;59.424;13.482;2023-01-05T07:44:17;1.67;;;1.48;;
46216;SDS011;47258;59.424;13.482;2023-01-05T07:46:44;2.08;;;1.20;;
46216;SDS011;47258;59.424;13.482;2023-01-05T07:49:12;1.80;;;1.65;;
46216;SDS011;47258;59.424;13.482;2023-01-05T07:51:39;1.67;;;1.50;;
46216;SDS011;47258;59.424;13.482;2023-01-05T07:54:07;2.10;;;1.52;;
46216;SDS011;47258;59.424;13.482;2023-01-05T07:56:34;1.65;;;1.55;;
46216;SDS011;47258;59.424;13.482;2023-01-05T07:59:01;3.53;;;2.03;;
46216;SDS011;47258;59.424;13.482;2023-01-05T08:01:28;2.83;;;1.48;;
46216;SDS011;47258;59.424;13.482;2023-01-05T08:03:55;5.20;;;1.58;;
46216;SDS011;47258;59.424;13.482;2023-01-05T08:06:23;1.25;;;1.00;;
46216;SDS011;47258;59.424;13.482;2023-01-05T08:08:50;1.42;;;1.33;;
46216;SDS011;47258;59.424;13.482;2023-01-05T08:11:18;2.30;;;1.50;;
46216;SDS011;47258;59.424;13.482;2023-01-05T08:13:45;1.67;;;1.58;;
46216;SDS011;47258;59.424;13.482;2023-01-05T08:16:26;2.83;;;1.83;;
46216;SDS011;47258;59.424;13.482;2023-01-05T08:18:55;2.10;;;1.92;;
46216;SDS011;47258;59.424;13.482;2023-01-05T08:21:24;2.78;;;1.67;;
46216;SDS011;47258;59.424;13.482;2023-01-05T08:23:51;4.93;;;1.77;;
46216;SDS011;47258;59.424;13.482;2023-01-05T08:26:19;2.83;;;1.80;;
46216;SDS011;47258;59.424;13.482;2023-01-05T08:28:47;1.65;;;1.55;;
46216;SDS011;47258;59.424;13.482;2023-01-05T08:31:16;2.60;;;2.03;;
46216;SDS011;47258;59.424;13.482;2023-01-05T08:33:44;5.63;;;1.83;;
46216;SDS011;47258;59.424;13.482;2023-01-05T08:36:12;3.85;;;2.47;;
46216;SDS011;47258;59.424;13.482;2023-01-05T08:38:42;3.88;;;1.90;;
46216;SDS011;47258;59.424;13.482;2023-01-05T08:41:14;2.75;;;2.13;;
46216;SDS011;47258;59.424;13.482;2023-01-05T08:43:42;2.95;;;1.85;;
46216;SDS011;47258;59.424;13.482;2023-01-05T08:46:09;2.05;;;1.80;;
46216;SDS011;47258;59.424;13.482;2023-01-05T08:48:36;3.35;;;2.45;;
46216;SDS011;47258;59.424;13.482;2023-01-05T08:51:03;2.38;;;2.10;;
46216;SDS011;47258;59.424;13.482;2023-01-05T08:53:32;2.47;;;2.28;;
46216;SDS011;47258;59.424;13.482;2023-01-05T08:56:01;4.22;;;2.40;;
46216;SDS011;47258;59.424;13.482;2023-01-05T08:58:28;3.83;;;2.90;;
46216;SDS011;47258;59.424;13.482;2023-01-05T09:00:55;3.55;;;2.20;;
46216;SDS011;47258;59.424;13.482;2023-01-05T09:03:22;3.58;;;2.22;;
46216;SDS011;47258;59.424;13.482;2023-01-05T09:05:51;4.68;;;2.72;;
46216;SDS011;47258;59.424;13.482;2023-01-05T09:08:19;3.13;;;2.58;;
46216;SDS011;47258;59.424;13.482;2023-01-05T09:10:46;2.30;;;2.10;;
46216;SDS011;47258;59.424;13.482;2023-01-05T09:13:14;2.55;;;2.35;;
46216;SDS011;47258;59.424;13.482;2023-01-05T09:15:41;3.97;;;2.55;;
46216;SDS011;47258;59.424;13.482;2023-01-05T09:18:08;2.70;;;2.20;;
46216;SDS011;47258;59.424;13.482;2023-01-05T09:20:36;4.38;;;3.00;;
46216;SDS011;47258;59.424;13.482;2023-01-05T09:23:03;2.60;;;2.30;;
46216;SDS011;47258;59.424;13.482;2023-01-05T09:25:30;3.08;;;2.75;;
46216;SDS011;47258;59.424;13.482;2023-01-05T09:27:57;4.53;;;3.22;;
46216;SDS011;47258;59.424;13.482;2023-01-05T09:30:25;4.30;;;3.20;;
46216;SDS011;47258;59.424;13.482;2023-01-05T09:32:52;6.75;;;3.95;;
46216;SDS011;47258;59.424;13.482;2023-01-05T09:35:19;2.78;;;2.53;;
46216;SDS011;47258;59.424;13.482;2023-01-05T09:37:46;2.33;;;2.13;;
46216;SDS011;47258;59.424;13.482;2023-01-05T09:40:13;5.45;;;3.08;;
46216;SDS011;47258;59.424;13.482;2023-01-05T09:42:41;3.65;;;3.10;;
46216;SDS011;47258;59.424;13.482;2023-01-05T09:45:10;5.38;;;3.45;;
46216;SDS011;47258;59.424;13.482;2023-01-05T09:47:42;3.50;;;2.60;;
46216;SDS011;47258;59.424;13.482;2023-01-05T09:50:16;3.53;;;3.22;;
46216;SDS011;47258;59.424;13.482;2023-01-05T09:52:46;6.00;;;3.85;;
46216;SDS011;47258;59.424;13.482;2023-01-05T09:55:14;3.95;;;3.17;;
46216;SDS011;47258;59.424;13.482;2023-01-05T09:57:43;3.60;;;2.93;;
46216;SDS011;47258;59.424;13.482;2023-01-05T10:00:17;6.55;;;3.83;;
46216;SDS011;47258;59.424;13.482;2023-01-05T10:02:50;4.68;;;3.55;;
46216;SDS011;47258;59.424;13.482;2023-01-05T10:05:20;7.60;;;4.15;;
46216;SDS011;47258;59.424;13.482;2023-01-05T10:07:49;5.55;;;3.97;;
46216;SDS011;47258;59.424;13.482;2023-01-05T10:10:26;6.05;;;3.20;;
46216;SDS011;47258;59.424;13.482;2023-01-05T10:13:06;3.58;;;3.28;;
46216;SDS011;47258;59.424;13.482;2023-01-05T10:15:47;3.67;;;2.58;;
46216;SDS011;47258;59.424;13.482;2023-01-05T10:18:20;3.97;;;3.38;;
46216;SDS011;47258;59.424;13.482;2023-01-05T10:20:53;4.95;;;3.95;;
46216;SDS011;47258;59.424;13.482;2023-01-05T10:23:32;6.30;;;4.00;;
46216;SDS011;47258;59.424;13.482;2023-01-05T10:26:08;6.80;;;3.22;;
46216;SDS011;47258;59.424;13.482;2023-01-05T10:28:44;4.10;;;3.50;;
46216;SDS011;47258;59.424;13.482;2023-01-05T10:31:18;6.28;;;3.33;;
46216;SDS011;47258;59.424;13.482;2023-01-05T10:33:51;8.88;;;3.78;;
46216;SDS011;47258;59.424;13.482;2023-01-05T10:36:24;4.85;;;3.55;;
46216;SDS011;47258;59.424;13.482;2023-01-05T10:39:01;4.93;;;3.25;;
46216;SDS011;47258;59.424;13.482;2023-01-05T10:41:37;9.48;;;4.40;;
46216;SDS011;47258;59.424;13.482;2023-01-05T10:47:23;5.95;;;3.05;;
46216;SDS011;47258;59.424;13.482;2023-01-05T10:52:21;7.57;;;2.90;;
46216;SDS011;47258;59.424;13.482;2023-01-05T10:54:50;5.43;;;2.88;;
46216;SDS011;47258;59.424;13.482;2023-01-05T10:57:35;8.30;;;3.05;;
46216;SDS011;47258;59.424;13.482;2023-01-05T11:00:09;4.32;;;2.80;;
46216;SDS011;47258;59.424;13.482;2023-01-05T11:02:39;2.70;;;2.50;;
46216;SDS011;47258;59.424;13.482;2023-01-05T11:07:53;4.95;;;2.65;;
46216;SDS011;47258;59.424;13.482;2023-01-05T11:10:25;9.18;;;3.95;;
46216;SDS011;47258;59.424;13.482;2023-01-05T11:12:59;3.40;;;2.28;;
46216;SDS011;47258;59.424;13.482;2023-01-05T11:15:29;5.85;;;3.45;;
46216;SDS011;47258;59.424;13.482;2023-01-05T11:17:58;3.80;;;2.53;;
46216;SDS011;47258;59.424;13.482;2023-01-05T11:20:27;7.85;;;2.35;;
46216;SDS011;47258;59.424;13.482;2023-01-05T11:22:54;3.10;;;2.13;;
46216;SDS011;47258;59.424;13.482;2023-01-05T11:25:24;4.13;;;2.42;;
46216;SDS011;47258;59.424;13.482;2023-01-05T11:30:41;9.70;;;2.75;;
46216;SDS011;47258;59.424;13.482;2023-01-05T11:33:22;2.75;;;1.98;;
46216;SDS011;47258;59.424;13.482;2023-01-05T11:35:53;3.30;;;1.60;;
46216;SDS011;47258;59.424;13.482;2023-01-05T11:38:22;4.50;;;2.30;;
46216;SDS011;47258;59.424;13.482;2023-01-05T11:40:51;6.30;;;1.98;;
46216;SDS011;47258;59.424;13.482;2023-01-05T11:43:20;4.57;;;2.10;;
46216;SDS011;47258;59.424;13.482;2023-01-05T11:45:50;3.97;;;2.08;;
46216;SDS011;47258;59.424;13.482;2023-01-05T11:48:21;4.18;;;1.88;;
46216;SDS011;47258;59.424;13.482;2023-01-05T11:50:52;7.32;;;2.13;;
46216;SDS011;47258;59.424;13.482;2023-01-05T11:53:23;4.63;;;1.90;;
46216;SDS011;47258;59.424;13.482;2023-01-05T11:55:58;5.10;;;2.72;;
46216;SDS011;47258;59.424;13.482;2023-01-05T11:58:29;3.53;;;2.00;;
46216;SDS011;47258;59.424;13.482;2023-01-05T12:01:08;3.05;;;2.30;;
46216;SDS011;47258;59.424;13.482;2023-01-05T12:03:59;3.95;;;2.55;;
46216;SDS011;47258;59.424;13.482;2023-01-05T12:06:34;5.20;;;2.90;;
46216;SDS011;47258;59.424;13.482;2023-01-05T12:09:14;4.75;;;2.10;;
46216;SDS011;47258;59.424;13.482;2023-01-05T12:11:50;6.28;;;3.42;;
46216;SDS011;47258;59.424;13.482;2023-01-05T12:14:28;5.45;;;2.10;;
46216;SDS011;47258;59.424;13.482;2023-01-05T12:17:07;8.73;;;3.38;;
46216;SDS011;47258;59.424;13.482;2023-01-05T12:19:46;7.75;;;2.92;;
46216;SDS011;47258;59.424;13.482;2023-01-05T12:22:32;8.63;;;2.22;;
46216;SDS011;47258;59.424;13.482;2023-01-05T12:25:18;4.43;;;2.13;;
46216;SDS011;47258;59.424;13.482;2023-01-05T12:28:02;2.83;;;2.13;;
46216;SDS011;47258;59.424;13.482;2023-01-05T12:30:53;9.65;;;2.53;;
46216;SDS011;47258;59.424;13.482;2023-01-05T12:33:40;9.25;;;2.13;;
46216;SDS011;47258;59.424;13.482;2023-01-05T12:36:27;7.72;;;2.33;;
46216;SDS011;47258;59.424;13.482;2023-01-05T12:39:16;4.97;;;2.38;;
46216;SDS011;47258;59.424;13.482;2023-01-05T12:42:15;6.57;;;2.33;;
46216;SDS011;47258;59.424;13.482;2023-01-05T12:48:02;4.03;;;2.08;;
46216;SDS011;47258;59.424;13.482;2023-01-05T12:50:32;4.75;;;2.17;;
46216;SDS011;47258;59.424;13.482;2023-01-05T12:53:10;7.78;;;1.73;;
46216;SDS011;47258;59.424;13.482;2023-01-05T12:55:45;3.70;;;1.70;;
46216;SDS011;47258;59.424;13.482;2023-01-05T12:58:15;2.72;;;1.83;;
46216;SDS011;47258;59.424;13.482;2023-01-05T13:00:47;3.95;;;1.90;;
46216;SDS011;47258;59.424;13.482;2023-01-05T13:03:18;3.83;;;2.08;;
46216;SDS011;47258;59.424;13.482;2023-01-05T13:05:50;8.60;;;2.03;;
46216;SDS011;47258;59.424;13.482;2023-01-05T13:08:23;3.05;;;2.00;;
46216;SDS011;47258;59.424;13.482;2023-01-05T13:11:01;2.13;;;1.60;;
46216;SDS011;47258;59.424;13.482;2023-01-05T13:13:35;2.72;;;1.83;;
46216;SDS011;47258;59.424;13.482;2023-01-05T13:16:07;6.72;;;2.05;;
46216;SDS011;47258;59.424;13.482;2023-01-05T13:18:41;4.05;;;2.13;;
46216;SDS011;47258;59.424;13.482;2023-01-05T13:21:14;7.38;;;2.17;;
46216;SDS011;47258;59.424;13.482;2023-01-05T13:23:42;3.53;;;1.40;;
46216;SDS011;47258;59.424;13.482;2023-01-05T13:26:15;5.80;;;1.77;;
46216;SDS011;47258;59.424;13.482;2023-01-05T13:28:44;3.72;;;1.92;;
46216;SDS011;47258;59.424;13.482;2023-01-05T13:34:21;3.92;;;1.60;;
46216;SDS011;47258;59.424;13.482;2023-01-05T13:37:26;3.95;;;1.90;;
46216;SDS011;47258;59.424;13.482;2023-01-05T13:40:07;14.50;;;2.85;;
46216;SDS011;47258;59.424;13.482;2023-01-05T13:42:50;4.30;;;2.47;;
46216;SDS011;47258;59.424;13.482;2023-01-05T13:51:51;5.00;;;2.00;;
46216;SDS011;47258;59.424;13.482;2023-01-05T13:54:24;8.57;;;2.88;;
46216;SDS011;47258;59.424;13.482;2023-01-05T13:56:59;7.20;;;1.98;;
46216;SDS011;47258;59.424;13.482;2023-01-05T13:59:34;13.85;;;3.45;;
46216;SDS011;47258;59.424;13.482;2023-01-05T14:02:03;5.82;;;2.65;;
46216;SDS011;47258;59.424;13.482;2023-01-05T14:04:48;9.90;;;2.67;;
46216;SDS011;47258;59.424;13.482;2023-01-05T14:07:15;5.70;;;2.45;;
46216;SDS011;47258;59.424;13.482;2023-01-05T14:09:44;7.35;;;2.17;;
46216;SDS011;47258;59.424;13.482;2023-01-05T14:12:39;6.13;;;1.77;;
46216;SDS011;47258;59.424;13.482;2023-01-05T14:18:06;3.45;;;2.42;;
46216;SDS011;47258;59.424;13.482;2023-01-05T14:20:35;5.95;;;1.90;;
46216;SDS011;47258;59.424;13.482;2023-01-05T14:26:09;5.93;;;3.20;;
46216;SDS011;47258;59.424;13.482;2023-01-05T14:28:41;5.97;;;3.05;;
46216;SDS011;47258;59.424;13.482;2023-01-05T14:34:14;7.20;;;2.42;;
46216;SDS011;47258;59.424;13.482;2023-01-05T14:36:44;6.78;;;2.47;;
46216;SDS011;47258;59.424;13.482;2023-01-05T14:39:22;5.53;;;2.30;;
46216;SDS011;47258;59.424;13.482;2023-01-05T14:41:57;7.22;;;2.92;;
46216;SDS011;47258;59.424;13.482;2023-01-05T14:44:34;4.93;;;2.40;;
46216;SDS011;47258;59.424;13.482;2023-01-05T14:47:10;5.37;;;2.20;;
46216;SDS011;47258;59.424;13.482;2023-01-05T14:49:39;5.18;;;2.58;;
46216;SDS011;47258;59.424;13.482;2023-01-05T14:52:14;7.18;;;3.35;;
46216;SDS011;47258;59.424;13.482;2023-01-05T14:57:47;7.45;;;3.10;;
46216;SDS011;47258;59.424;13.482;2023-01-05T15:00:15;5.40;;;2.13;;
46216;SDS011;47258;59.424;13.482;2023-01-05T15:02:55;8.73;;;2.60;;
46216;SDS011;47258;59.424;13.482;2023-01-05T15:05:28;7.07;;;2.08;;
46216;SDS011;47258;59.424;13.482;2023-01-05T15:08:03;9.65;;;2.05;;
46216;SDS011;47258;59.424;13.482;2023-01-05T15:17:10;4.80;;;2.65;;
46216;SDS011;47258;59.424;13.482;2023-01-05T15:20:00;9.00;;;3.03;;
46216;SDS011;47258;59.424;13.482;2023-01-05T15:22:45;7.85;;;3.05;;
46216;SDS011;47258;59.424;13.482;2023-01-05T15:28:26;12.40;;;5.10;;
46216;SDS011;47258;59.424;13.482;2023-01-05T15:31:14;7.45;;;2.40;;
46216;SDS011;47258;59.424;13.482;2023-01-05T15:33:54;4.28;;;2.05;;
46216;SDS011;47258;59.424;13.482;2023-01-05T15:36:29;9.10;;;3.28;;
46216;SDS011;47258;59.424;13.482;2023-01-05T15:38:58;13.60;;;3.05;;
46216;SDS011;47258;59.424;13.482;2023-01-05T15:41:25;7.70;;;2.65;;
46216;SDS011;47258;59.424;13.482;2023-01-05T15:43:54;9.75;;;3.70;;
46216;SDS011;47258;59.424;13.482;2023-01-05T15:46:22;4.93;;;2.33;;
46216;SDS011;47258;59.424;13.482;2023-01-05T15:48:56;7.57;;;2.67;;